Delta — PDPC — position and weather

sailwx.info

Track history (hours):
 
Tides and Currents Weather Stations Pressure Air Temp Water Temp Dewpoint Dewpoint Depression Visibility Wind Speed Wind Dir Waves Ship Positions

Oceanographic research ship Delta (Netherlands)

Detailed information on ship capabilities available from University of Delaware's Ocean Information Center.

Last reported at 2017-Mar-22 03:33 UTC. Time now 2017-Mar-26 01:44 UTC.
Position N 51°27' E 003°36'.

MMSI: 244696464.

Date/timePositionNaut miles runAvg speedWind from/ knotsBaromVisibWave heightAir tempDewpointWater temp
2017-Mar-22 03:33N 51°27' E 003°36'0 0.0
2017-Mar-22 01:33N 51°27' E 003°36'0 0.0
2017-Mar-22 00:31N 51°27' E 003°36'12 1.0
2017-Mar-21 12:32N 51°18' E 003°50'7 7.1
2017-Mar-21 11:33N 51°12' E 003°48'6 6.2
2017-Mar-21 10:33N 51°06' E 003°44'6 5.7
2017-Mar-21 09:34N 51°11' E 003°48'5 4.4
2017-Mar-21 08:29N 51°16' E 003°50'4 3.9
2017-Mar-21 07:27N 51°20' E 003°49'16 0.9
2017-Mar-20 13:23N 51°21' E 004°15'0 0.4
2017-Mar-20 12:33N 51°21' E 004°15'0 0.0
2017-Mar-20 11:15N 51°21' E 004°15'0 0.0
2017-Mar-20 10:29N 51°21' E 004°15'  
2017-Mar-15 13:33N 51°27' E 004°01'4 4.2
2017-Mar-15 12:33N 51°24' E 004°05'0 0.0
2017-Mar-15 11:33N 51°24' E 004°05'0 0.1
2017-Mar-15 10:32N 51°24' E 004°05'0 0.0
2017-Mar-15 09:33N 51°24' E 004°05'0 0.0
2017-Mar-15 08:33N 51°24' E 004°05'0 0.0
2017-Mar-15 07:33N 51°24' E 004°04'4 4.2
2017-Mar-15 06:33N 51°27' E 004°01'0 0.0
2017-Mar-15 05:31N 51°27' E 004°01'0 0.0
2017-Mar-15 04:33N 51°27' E 004°01'0 0.0
2017-Mar-15 03:31N 51°27' E 004°01'0 0.0
2017-Mar-15 02:30N 51°27' E 004°01'0 0.0
2017-Mar-15 01:30N 51°27' E 004°01'0 0.0
2017-Mar-15 00:33N 51°27' E 004°01'0 0.0
2017-Mar-14 23:28N 51°27' E 004°01'0 0.0
2017-Mar-14 22:32N 51°27' E 004°01'0 0.0
2017-Mar-14 21:33N 51°27' E 004°01'0 0.0
2017-Mar-14 20:30N 51°27' E 004°01'0 0.0
2017-Mar-14 19:33N 51°27' E 004°01'0 0.0
2017-Mar-14 18:29N 51°27' E 004°01'0 0.0
2017-Mar-14 17:28N 51°27' E 004°01'0 0.0
2017-Mar-14 16:33N 51°27' E 004°01'0 0.0
2017-Mar-14 15:32N 51°27' E 004°01'0 0.0
2017-Mar-14 14:30N 51°27' E 004°01'0 0.0
2017-Mar-14 13:33N 51°27' E 004°01'5 5.2
2017-Mar-14 12:33N 51°23' E 004°06'2 1.8
2017-Mar-14 11:33N 51°23' E 004°09'0 0.0
2017-Mar-14 10:33N 51°23' E 004°09'0 0.1
2017-Mar-14 09:32N 51°23' E 004°08'0 0.0
2017-Mar-14 08:32N 51°23' E 004°08'2 2.2
2017-Mar-14 07:33N 51°23' E 004°05'5 4.5
2017-Mar-14 06:31N 51°27' E 004°01'0 0.0
2017-Mar-14 05:16N 51°27' E 004°01'0 0.0
2017-Mar-14 04:21N 51°27' E 004°01'0 0.0
2017-Mar-14 03:31N 51°27' E 004°01'0 0.0
2017-Mar-14 02:27N 51°27' E 004°01'0 0.0
2017-Mar-14 01:33N 51°27' E 004°01'0 0.0
2017-Mar-14 00:28N 51°27' E 004°01'0 0.0
2017-Mar-13 23:23N 51°27' E 004°01'0 0.0
2017-Mar-13 22:32N 51°27' E 004°01'0 0.0
2017-Mar-13 21:33N 51°27' E 004°01'0 0.0
2017-Mar-13 20:31N 51°27' E 004°01'0 0.0
2017-Mar-13 19:14N 51°27' E 004°01'0 0.0
2017-Mar-13 18:31N 51°27' E 004°01'0 0.0
2017-Mar-13 17:33N 51°27' E 004°01'0 0.0
2017-Mar-13 16:33N 51°27' E 004°01'0 0.0
2017-Mar-13 15:31N 51°27' E 004°01'0 0.0
2017-Mar-13 14:28N 51°27' E 004°01'0 0.0
2017-Mar-13 13:33N 51°27' E 004°01'0 0.0
2017-Mar-13 12:29N 51°27' E 004°01'1 0.6
2017-Mar-13 11:34N 51°27' E 004°01'2 1.8
2017-Mar-13 10:33N 51°27' E 003°58'0 0.0
2017-Mar-13 09:33N 51°27' E 003°58'0 0.0
2017-Mar-13 08:33N 51°27' E 003°58'0 0.0
2017-Mar-13 07:32N 51°27' E 003°58'2 1.7
2017-Mar-13 06:30N 51°27' E 004°01'0 0.0
2017-Mar-13 05:33N 51°27' E 004°01'0 0.0
2017-Mar-13 04:26N 51°27' E 004°01'0 0.0
2017-Mar-13 03:30N 51°27' E 004°01'0 0.0
2017-Mar-13 02:33N 51°27' E 004°01'0 0.0
2017-Mar-13 01:32N 51°27' E 004°01'0 0.0
2017-Mar-13 00:33N 51°27' E 004°01'0 0.0
2017-Mar-12 23:27N 51°27' E 004°01'0 0.0
2017-Mar-12 22:31N 51°27' E 004°01'0 0.0
2017-Mar-12 21:33N 51°27' E 004°01'0 0.0
2017-Mar-12 20:30N 51°27' E 004°01'0 0.0
2017-Mar-12 19:30N 51°27' E 004°01'0 0.0
2017-Mar-12 18:27N 51°27' E 004°01'0 0.0
2017-Mar-12 17:33N 51°27' E 004°01'0 0.0
2017-Mar-12 16:33N 51°27' E 004°01'0 0.0
2017-Mar-12 15:30N 51°27' E 004°01'0 0.0
2017-Mar-12 14:29N 51°27' E 004°01'0 0.0
2017-Mar-12 13:33N 51°27' E 004°01'0 0.0
2017-Mar-12 12:29N 51°27' E 004°01'0 0.0
2017-Mar-12 11:16N 51°27' E 004°01'0 0.0
2017-Mar-12 10:30N 51°27' E 004°01'0 0.0
2017-Mar-12 09:30N 51°27' E 004°01'0 0.0
2017-Mar-12 08:33N 51°27' E 004°01'0 0.0
2017-Mar-12 07:33N 51°27' E 004°01'0 0.0
2017-Mar-12 05:33N 51°27' E 004°01'0 0.0
2017-Mar-12 04:32N 51°27' E 004°01'0 0.0
2017-Mar-12 03:33N 51°27' E 004°01'  
Track history (hours):
 
Tides and Currents Weather Stations Pressure Air Temp Water Temp Dewpoint Dewpoint Depression Visibility Wind Speed Wind Dir Waves Ship Positions

Oceanographic research ship Delta (Netherlands)

Detailed information on ship capabilities available from University of Delaware's Ocean Information Center.

Last reported at 2017-Mar-22 03:33 UTC. Time now 2017-Mar-26 01:44 UTC.
Position N 51°27' E 003°36'.

MMSI: 244696464.

Date/timePositionNaut miles runAvg speedWind from/ knotsBaromVisibWave heightAir tempDewpointWater temp
2017-Mar-22 03:33N 51°27' E 003°36'0 0.0
2017-Mar-22 01:33N 51°27' E 003°36'0 0.0
2017-Mar-22 00:31N 51°27' E 003°36'12 1.0
2017-Mar-21 12:32N 51°18' E 003°50'7 7.1
2017-Mar-21 11:33N 51°12' E 003°48'6 6.2
2017-Mar-21 10:33N 51°06' E 003°44'6 5.7
2017-Mar-21 09:34N 51°11' E 003°48'5 4.4
2017-Mar-21 08:29N 51°16' E 003°50'4 3.9
2017-Mar-21 07:27N 51°20' E 003°49'16 0.9
2017-Mar-20 13:23N 51°21' E 004°15'0 0.4
2017-Mar-20 12:33N 51°21' E 004°15'0 0.0
2017-Mar-20 11:15N 51°21' E 004°15'0 0.0
2017-Mar-20 10:29N 51°21' E 004°15'  
2017-Mar-15 13:33N 51°27' E 004°01'4 4.2
2017-Mar-15 12:33N 51°24' E 004°05'0 0.0
2017-Mar-15 11:33N 51°24' E 004°05'0 0.1
2017-Mar-15 10:32N 51°24' E 004°05'0 0.0
2017-Mar-15 09:33N 51°24' E 004°05'0 0.0
2017-Mar-15 08:33N 51°24' E 004°05'0 0.0
2017-Mar-15 07:33N 51°24' E 004°04'4 4.2
2017-Mar-15 06:33N 51°27' E 004°01'0 0.0
2017-Mar-15 05:31N 51°27' E 004°01'0 0.0
2017-Mar-15 04:33N 51°27' E 004°01'0 0.0
2017-Mar-15 03:31N 51°27' E 004°01'0 0.0
2017-Mar-15 02:30N 51°27' E 004°01'0 0.0
2017-Mar-15 01:30N 51°27' E 004°01'0 0.0
2017-Mar-15 00:33N 51°27' E 004°01'0 0.0
2017-Mar-14 23:28N 51°27' E 004°01'0 0.0
2017-Mar-14 22:32N 51°27' E 004°01'0 0.0
2017-Mar-14 21:33N 51°27' E 004°01'0 0.0
2017-Mar-14 20:30N 51°27' E 004°01'0 0.0
2017-Mar-14 19:33N 51°27' E 004°01'0 0.0
2017-Mar-14 18:29N 51°27' E 004°01'0 0.0
2017-Mar-14 17:28N 51°27' E 004°01'0 0.0
2017-Mar-14 16:33N 51°27' E 004°01'0 0.0
2017-Mar-14 15:32N 51°27' E 004°01'0 0.0
2017-Mar-14 14:30N 51°27' E 004°01'0 0.0
2017-Mar-14 13:33N 51°27' E 004°01'5 5.2
2017-Mar-14 12:33N 51°23' E 004°06'2 1.8
2017-Mar-14 11:33N 51°23' E 004°09'0 0.0
2017-Mar-14 10:33N 51°23' E 004°09'0 0.1
2017-Mar-14 09:32N 51°23' E 004°08'0 0.0
2017-Mar-14 08:32N 51°23' E 004°08'2 2.2
2017-Mar-14 07:33N 51°23' E 004°05'5 4.5
2017-Mar-14 06:31N 51°27' E 004°01'0 0.0
2017-Mar-14 05:16N 51°27' E 004°01'0 0.0
2017-Mar-14 04:21N 51°27' E 004°01'0 0.0
2017-Mar-14 03:31N 51°27' E 004°01'0 0.0
2017-Mar-14 02:27N 51°27' E 004°01'0 0.0
2017-Mar-14 01:33N 51°27' E 004°01'0 0.0
2017-Mar-14 00:28N 51°27' E 004°01'0 0.0
2017-Mar-13 23:23N 51°27' E 004°01'0 0.0
2017-Mar-13 22:32N 51°27' E 004°01'0 0.0
2017-Mar-13 21:33N 51°27' E 004°01'0 0.0
2017-Mar-13 20:31N 51°27' E 004°01'0 0.0
2017-Mar-13 19:14N 51°27' E 004°01'0 0.0
2017-Mar-13 18:31N 51°27' E 004°01'0 0.0
2017-Mar-13 17:33N 51°27' E 004°01'0 0.0
2017-Mar-13 16:33N 51°27' E 004°01'0 0.0
2017-Mar-13 15:31N 51°27' E 004°01'0 0.0
2017-Mar-13 14:28N 51°27' E 004°01'0 0.0
2017-Mar-13 13:33N 51°27' E 004°01'0 0.0
2017-Mar-13 12:29N 51°27' E 004°01'1 0.6
2017-Mar-13 11:34N 51°27' E 004°01'2 1.8
2017-Mar-13 10:33N 51°27' E 003°58'0 0.0
2017-Mar-13 09:33N 51°27' E 003°58'0 0.0
2017-Mar-13 08:33N 51°27' E 003°58'0 0.0
2017-Mar-13 07:32N 51°27' E 003°58'2 1.7
2017-Mar-13 06:30N 51°27' E 004°01'0 0.0
2017-Mar-13 05:33N 51°27' E 004°01'0 0.0
2017-Mar-13 04:26N 51°27' E 004°01'0 0.0
2017-Mar-13 03:30N 51°27' E 004°01'0 0.0
2017-Mar-13 02:33N 51°27' E 004°01'0 0.0
2017-Mar-13 01:32N 51°27' E 004°01'0 0.0
2017-Mar-13 00:33N 51°27' E 004°01'0 0.0
2017-Mar-12 23:27N 51°27' E 004°01'0 0.0
2017-Mar-12 22:31N 51°27' E 004°01'0 0.0
2017-Mar-12 21:33N 51°27' E 004°01'0 0.0
2017-Mar-12 20:30N 51°27' E 004°01'0 0.0
2017-Mar-12 19:30N 51°27' E 004°01'0 0.0
2017-Mar-12 18:27N 51°27' E 004°01'0 0.0
2017-Mar-12 17:33N 51°27' E 004°01'0 0.0
2017-Mar-12 16:33N 51°27' E 004°01'0 0.0
2017-Mar-12 15:30N 51°27' E 004°01'0 0.0
2017-Mar-12 14:29N 51°27' E 004°01'0 0.0
2017-Mar-12 13:33N 51°27' E 004°01'0 0.0
2017-Mar-12 12:29N 51°27' E 004°01'0 0.0
2017-Mar-12 11:16N 51°27' E 004°01'0 0.0
2017-Mar-12 10:30N 51°27' E 004°01'0 0.0
2017-Mar-12 09:30N 51°27' E 004°01'0 0.0
2017-Mar-12 08:33N 51°27' E 004°01'0 0.0
2017-Mar-12 07:33N 51°27' E 004°01'0 0.0
2017-Mar-12 05:33N 51°27' E 004°01'0 0.0
2017-Mar-12 04:32N 51°27' E 004°01'0 0.0
2017-Mar-12 03:33N 51°27' E 004°01'  

Dump ship's entire track history